Time;durP1;ratioP1;P1;durP2;ratioP2;P2;SDS_P1;SDS_P2;PMS_P1;PMS_P2;Temp;Humidity;BMP_temperature;BMP_pressure;BME280_temperature;BME280_humidity;BME280_pressure;Samples;Min_cycle;Max_cycle;Signal;HPM_P1;HPM_P2
2023/07/11 00:02:20;;;;;;;5.43;4.93;;;;;;;19.59;69.49;101260.72;4975959;28;21960;-76
2023/07/11 00:04:46;;;;;;;6.00;4.73;;;;;;;19.56;69.51;101261.47;4975259;28;20208;-76
2023/07/11 00:07:14;;;;;;;5.80;4.77;;;;;;;19.56;69.59;101269.50;4969363;28;20227;-76
2023/07/11 00:09:40;;;;;;;6.13;4.93;;;;;;;19.47;66.76;101261.78;4977794;28;20935;-76
2023/07/11 00:12:08;;;;;;;7.30;5.37;;;;;;;19.47;67.04;101271.72;4976094;28;20230;-76
2023/07/11 00:14:36;;;;;;;5.80;4.77;;;;;;;19.45;68.50;101265.97;4970980;28;20244;-76
2023/07/11 00:17:04;;;;;;;8.23;5.10;;;;;;;19.44;69.18;101270.53;4973654;28;20235;-75
2023/07/11 00:19:31;;;;;;;6.17;4.63;;;;;;;19.42;69.91;101267.47;4974162;28;20224;-76
2023/07/11 00:21:57;;;;;;;5.70;5.10;;;;;;;19.39;69.82;101268.19;4972121;28;20212;-76
2023/07/11 00:24:25;;;;;;;5.53;4.97;;;;;;;19.37;69.92;101262.44;4967863;28;20212;-75
2023/07/11 00:26:51;;;;;;;5.47;4.60;;;;;;;19.34;70.15;101267.75;4980825;28;20227;-75
2023/07/11 00:29:21;;;;;;;5.53;4.87;;;;;;;19.31;70.28;101273.84;4973786;28;21155;-78
2023/07/11 00:31:48;;;;;;;5.73;4.53;;;;;;;19.28;70.24;101264.63;4975683;28;20946;-78
2023/07/11 00:34:14;;;;;;;5.03;4.37;;;;;;;19.20;71.11;101262.97;4976264;28;20215;-77
2023/07/11 00:36:41;;;;;;;5.63;5.03;;;;;;;19.15;70.45;101255.28;4977540;28;20243;-77
2023/07/11 00:39:09;;;;;;;6.93;5.23;;;;;;;19.12;71.08;101256.03;4976384;28;20220;-77
2023/07/11 00:41:39;;;;;;;6.50;5.10;;;;;;;19.08;71.42;101257.88;4976414;28;20212;-78
2023/07/11 00:44:13;;;;;;;6.67;4.77;;;;;;;19.05;71.37;101263.19;4973699;28;21083;-76
2023/07/11 00:46:40;;;;;;;5.67;4.73;;;;;;;19.01;71.73;101265.06;4972931;28;20235;-76
2023/07/11 00:49:09;;;;;;;5.23;4.63;;;;;;;18.97;71.95;101270.38;4972844;28;20204;-76
2023/07/11 00:51:40;;;;;;;5.30;4.53;;;;;;;18.94;71.86;101265.75;4973514;28;20212;-75
2023/07/11 00:54:09;;;;;;;5.83;5.23;;;;;;;18.90;71.73;101270.31;4971457;28;20840;-75
2023/07/11 00:56:41;;;;;;;6.80;4.97;;;;;;;18.88;71.52;101261.09;4977170;28;20238;-75
2023/07/11 00:59:09;;;;;;;5.90;5.30;;;;;;;18.85;72.34;101275.19;4975222;28;20243;-76
2023/07/11 01:01:36;;;;;;;6.83;5.33;;;;;;;18.83;72.08;101264.09;4969195;28;20227;-75
2023/07/11 01:04:05;;;;;;;6.20;5.47;;;;;;;18.79;72.29;101256.00;4975578;28;20205;-76
2023/07/11 01:06:33;;;;;;;6.20;5.60;;;;;;;18.77;72.57;101255.59;4975063;28;20312;-76
2023/07/11 01:09:04;;;;;;;6.50;5.30;;;;;;;18.76;72.42;101262.09;4978760;28;20204;-75
2023/07/11 01:11:48;;;;;;;8.47;5.30;;;;;;;18.71;72.45;101256.28;4975180;28;20207;-78
2023/07/11 01:14:16;;;;;;;5.60;5.00;;;;;;;18.67;72.59;101252.81;4970898;28;20212;-75
2023/07/11 01:16:43;;;;;;;7.60;5.40;;;;;;;18.65;72.61;101257.72;4961132;28;21352;-75
2023/07/11 01:19:10;;;;;;;6.37;5.20;;;;;;;18.61;72.91;101267.59;4969101;28;20224;-75
2023/07/11 01:21:37;;;;;;;9.63;5.80;;;;;;;18.57;73.08;101258.78;4976773;28;20204;-75
2023/07/11 01:24:05;;;;;;;7.70;5.33;;;;;;;18.55;73.21;101263.72;4965626;28;20235;-75
2023/07/11 01:26:31;;;;;;;7.63;5.27;;;;;;;18.53;73.37;101258.72;4975180;28;20238;-78
2023/07/11 01:28:58;;;;;;;6.40;5.20;;;;;;;18.52;73.35;101259.09;4977319;28;20208;-75
2023/07/11 01:31:25;;;;;;;5.77;5.17;;;;;;;18.47;73.67;101257.50;4990844;28;20219;-75
2023/07/11 01:33:51;;;;;;;7.07;5.13;;;;;;;18.47;73.64;101254.06;4973303;28;20808;-75
2023/07/11 01:36:17;;;;;;;6.63;5.47;;;;;;;18.44;73.69;101260.13;4982086;28;21831;-76
2023/07/11 01:38:45;;;;;;;5.53;5.03;;;;;;;18.41;73.71;101258.16;4974084;28;20231;-76
2023/07/11 01:41:11;;;;;;;7.50;5.07;;;;;;;18.37;73.38;101262.72;4975912;28;21718;-76
2023/07/11 01:43:38;;;;;;;7.03;5.20;;;;;;;18.34;73.65;101256.19;4976556;28;20212;-76
2023/07/11 01:46:04;;;;;;;6.50;5.40;;;;;;;18.33;74.08;101259.22;4966866;28;20243;-75
2023/07/11 01:48:31;;;;;;;9.33;6.33;;;;;;;18.30;73.61;101257.22;4971072;28;20215;-76
2023/07/11 01:50:57;;;;;;;5.83;5.17;;;;;;;18.27;73.82;101252.59;4970053;28;20212;-75
2023/07/11 01:53:23;;;;;;;6.40;5.60;;;;;;;18.24;73.92;101251.41;4974104;28;20460;-75
2023/07/11 01:55:56;;;;;;;5.67;5.00;;;;;;;18.22;73.97;101247.56;4966844;28;20223;-75
2023/07/11 01:58:23;;;;;;;6.73;5.47;;;;;;;18.19;74.31;101254.41;4972596;28;20216;-75
2023/07/11 02:00:49;;;;;;;6.00;5.40;;;;;;;18.16;74.07;101249.75;4970635;28;20239;-75
2023/07/11 02:03:15;;;;;;;6.80;6.00;;;;;;;18.13;74.46;101252.38;4974590;28;20219;-75
2023/07/11 02:05:42;;;;;;;7.87;5.70;;;;;;;18.08;74.09;101244.66;4965882;28;20227;-75
2023/07/11 02:08:08;;;;;;;7.50;5.70;;;;;;;18.05;74.31;101242.72;4983828;28;20204;-75
2023/07/11 02:10:35;;;;;;;8.37;6.17;;;;;;;18.01;74.36;101239.22;4969846;28;20883;-75
2023/07/11 02:13:03;;;;;;;7.30;5.43;;;;;;;17.98;74.56;101240.72;4972446;28;20211;-77
2023/07/11 02:15:40;;;;;;;8.57;5.87;;;;;;;17.94;74.56;101241.78;4972533;28;20231;-77
2023/07/11 02:18:06;;;;;;;6.03;5.40;;;;;;;17.89;74.80;101244.75;4974740;28;20218;-77
2023/07/11 02:20:33;;;;;;;7.40;5.53;;;;;;;17.85;74.75;101252.72;4977343;28;20231;-77
2023/07/11 02:23:01;;;;;;;5.77;5.13;;;;;;;17.82;74.91;101244.66;4972559;28;20219;-76
2023/07/11 02:25:28;;;;;;;9.17;5.57;;;;;;;17.76;74.94;101249.53;4972513;28;20368;-76
2023/07/11 02:27:54;;;;;;;7.53;5.40;;;;;;;17.73;74.97;101257.47;4971841;28;20223;-76
2023/07/11 02:30:22;;;;;;;6.97;5.77;;;;;;;17.67;74.98;101261.56;4974485;28;20207;-76
2023/07/11 02:32:48;;;;;;;8.13;6.07;;;;;;;17.64;75.30;101247.03;4969905;28;20230;-76
2023/07/11 02:35:15;;;;;;;6.77;6.07;;;;;;;17.63;75.64;101255.38;4971446;28;20832;-76
2023/07/11 02:37:41;;;;;;;8.20;6.67;;;;;;;17.59;75.63;101251.91;4972671;28;20278;-76
2023/07/11 02:40:08;;;;;;;6.53;5.93;;;;;;;17.54;75.71;101246.84;4971120;28;20234;-75
2023/07/11 02:42:34;;;;;;;7.33;6.30;;;;;;;17.52;75.88;101244.53;4975376;28;20215;-76
2023/07/11 02:45:01;;;;;;;6.70;5.90;;;;;;;17.50;76.04;101254.78;4969895;28;20226;-76
2023/07/11 02:47:29;;;;;;;8.07;6.93;;;;;;;17.46;76.05;101250.50;4972186;28;20664;-76
2023/07/11 02:49:55;;;;;;;6.60;5.87;;;;;;;17.41;75.86;101256.16;4967283;28;20207;-76
2023/07/11 02:52:21;;;;;;;7.17;6.47;;;;;;;17.40;76.28;101255.38;4973370;28;20210;-75
2023/07/11 02:54:48;;;;;;;7.07;6.00;;;;;;;17.39;76.38;101253.81;4969495;28;20226;-76
2023/07/11 02:57:14;;;;;;;7.73;6.43;;;;;;;17.36;76.42;101256.41;4972871;28;20231;-76
2023/07/11 02:59:40;;;;;;;8.80;6.97;;;;;;;17.31;76.31;101257.47;4972680;28;20215;-76
2023/07/11 03:02:07;;;;;;;7.17;6.00;;;;;;;17.30;76.62;101258.59;4972262;28;20353;-76
2023/07/11 03:04:34;;;;;;;10.73;6.30;;;;;;;17.30;76.76;101261.28;4970929;28;20214;-76
2023/07/11 03:07:01;;;;;;;7.07;6.37;;;;;;;17.30;76.95;101260.50;4968889;28;20253;-76
2023/07/11 03:09:28;;;;;;;6.93;6.23;;;;;;;17.29;76.86;101258.94;4971320;28;20199;-76
2023/07/11 03:11:54;;;;;;;7.37;6.43;;;;;;;17.30;77.17;101260.50;4975881;28;20210;-76
2023/07/11 03:14:21;;;;;;;6.67;5.93;;;;;;;17.31;76.80;101265.47;4976073;28;20228;-77
2023/07/11 03:16:50;;;;;;;7.27;6.57;;;;;;;17.32;77.02;101256.34;4979324;28;20225;-77
2023/07/11 03:19:19;;;;;;;7.53;6.20;;;;;;;17.29;77.25;101258.94;4976840;28;20246;-77
2023/07/11 03:21:47;;;;;;;6.67;5.90;;;;;;;17.28;77.13;101260.84;4983593;28;20215;-77
2023/07/11 03:24:14;;;;;;;7.93;6.27;;;;;;;17.29;77.25;101264.28;4977986;28;20225;-77
2023/07/11 03:26:41;;;;;;;6.20;5.60;;;;;;;17.28;77.35;101262.75;4981586;28;20235;-77
2023/07/11 03:29:07;;;;;;;6.03;5.47;;;;;;;17.26;77.40;101263.09;4979440;28;20860;-77
2023/07/11 03:31:33;;;;;;;6.53;5.90;;;;;;;17.27;77.36;101269.19;4979715;28;20338;-77
2023/07/11 03:34:00;;;;;;;5.77;5.17;;;;;;;17.30;77.46;101266.63;4979115;28;20212;-77
2023/07/11 03:36:26;;;;;;;6.73;6.03;;;;;;;17.30;77.53;101271.97;4984980;28;20229;-77
2023/07/11 03:38:54;;;;;;;6.00;5.40;;;;;;;17.30;77.42;101269.28;4977765;28;20224;-77
2023/07/11 03:41:20;;;;;;;6.73;5.40;;;;;;;17.33;77.47;101275.81;4982545;28;20236;-76
2023/07/11 03:43:46;;;;;;;5.97;5.37;;;;;;;17.34;77.31;101278.09;4977562;28;20650;-77
2023/07/11 03:46:13;;;;;;;5.70;5.20;;;;;;;17.40;77.82;101279.41;4980605;28;20231;-77
2023/07/11 03:48:39;;;;;;;7.63;5.70;;;;;;;17.45;77.82;101279.13;4982889;28;20216;-78
2023/07/11 03:51:05;;;;;;;6.13;5.53;;;;;;;17.47;77.22;101281.44;4974609;28;20231;-75
2023/07/11 03:53:32;;;;;;;6.17;5.50;;;;;;;17.52;77.30;101289.94;4978277;28;20226;-76
2023/07/11 03:55:59;;;;;;;7.70;6.13;;;;;;;17.56;77.19;101281.97;4980075;28;20400;-78
2023/07/11 03:58:27;;;;;;;7.60;6.17;;;;;;;17.61;77.61;101287.81;4980755;28;20230;-75
2023/07/11 04:00:54;;;;;;;7.23;6.53;;;;;;;17.66;77.25;101290.19;4980439;28;21510;-78
2023/07/11 04:03:21;;;;;;;10.43;6.40;;;;;;;17.72;76.67;101279.97;4974923;28;20208;-75
2023/07/11 04:05:47;;;;;;;6.93;6.23;;;;;;;17.78;76.79;101290.00;4964056;28;20249;-75
2023/07/11 04:08:13;;;;;;;7.80;6.53;;;;;;;17.84;76.53;101285.91;4980396;28;20291;-75
2023/07/11 04:10:40;;;;;;;10.93;7.70;;;;;;;17.92;76.51;101287.59;4976392;28;20219;-76
2023/07/11 04:13:07;;;;;;;9.27;7.97;;;;;;;18.01;76.60;101276.66;4974085;28;20215;-78
2023/07/11 04:15:34;;;;;;;8.67;7.60;;;;;;;18.09;76.38;101292.44;4977869;28;21587;-78
2023/07/11 04:18:00;;;;;;;8.27;7.47;;;;;;;18.18;76.36;101295.63;4969635;28;20215;-75
2023/07/11 04:20:26;;;;;;;8.27;7.47;;;;;;;18.25;75.90;101295.72;4964650;28;20235;-76
2023/07/11 04:22:53;;;;;;;9.20;7.17;;;;;;;18.34;75.81;101290.94;4972096;28;21436;-76
2023/07/11 04:25:19;;;;;;;11.30;9.60;;;;;;;18.43;75.48;101299.47;4977725;28;20219;-75
2023/07/11 04:27:45;;;;;;;10.20;8.40;;;;;;;18.51;75.50;101295.75;4977070;28;20219;-75
2023/07/11 04:30:14;;;;;;;11.43;8.73;;;;;;;18.60;75.01;101303.53;4974568;28;20208;-76
2023/07/11 04:32:41;;;;;;;9.83;7.27;;;;;;;18.69;75.00;101301.38;4977280;28;20208;-76
2023/07/11 04:35:13;;;;;;;8.23;7.43;;;;;;;18.78;74.59;101309.91;4971914;28;20208;-76
2023/07/11 04:37:39;;;;;;;10.17;8.33;;;;;;;18.84;74.23;101306.53;4974872;28;20229;-76
2023/07/11 04:40:06;;;;;;;9.70;8.67;;;;;;;18.92;74.48;101305.50;4974085;28;20814;-76
2023/07/11 04:42:32;;;;;;;8.63;7.53;;;;;;;19.00;74.10;101304.44;4970350;28;20465;-76
2023/07/11 04:45:01;;;;;;;9.53;8.53;;;;;;;19.09;74.07;101302.25;4966118;28;20207;-77
2023/07/11 04:47:30;;;;;;;12.83;8.67;;;;;;;19.17;73.73;101303.09;4972475;28;20869;-77
2023/07/11 04:49:56;;;;;;;8.93;7.50;;;;;;;19.26;73.56;101309.78;4968426;28;20211;-78
2023/07/11 04:52:23;;;;;;;9.17;8.00;;;;;;;19.35;73.42;101310.22;4976031;28;21564;-78
2023/07/11 04:54:49;;;;;;;9.70;7.90;;;;;;;19.43;73.23;101303.81;4968718;28;20951;-78
2023/07/11 04:57:15;;;;;;;8.57;7.13;;;;;;;19.52;73.09;101307.00;4972440;28;20230;-76
2023/07/11 04:59:42;;;;;;;10.20;8.40;;;;;;;19.62;72.95;101303.63;4976895;28;20207;-75
2023/07/11 05:02:08;;;;;;;10.20;8.57;;;;;;;19.73;72.64;101312.56;4969666;28;20207;-76
2023/07/11 05:04:39;;;;;;;8.57;7.33;;;;;;;19.85;72.43;101308.81;4970390;28;20200;-75
2023/07/11 05:07:06;;;;;;;10.17;8.50;;;;;;;19.92;72.05;101309.66;4975891;28;20316;-76
2023/07/11 05:09:32;;;;;;;9.60;6.87;;;;;;;20.01;71.85;101299.38;4983977;28;20204;-75
2023/07/11 05:12:00;;;;;;;10.13;7.90;;;;;;;20.14;71.55;101299.91;4982804;28;20682;-75
2023/07/11 05:14:27;;;;;;;8.70;7.67;;;;;;;20.23;71.29;101295.75;4985436;28;20241;-76
2023/07/11 05:16:54;;;;;;;9.63;7.70;;;;;;;20.34;71.32;101304.63;4980905;28;20228;-75
2023/07/11 05:19:21;;;;;;;9.37;8.00;;;;;;;20.44;71.11;101303.19;4986442;28;20219;-76
2023/07/11 05:21:48;;;;;;;9.37;8.23;;;;;;;20.52;70.83;101299.38;4986352;28;20281;-76
2023/07/11 05:24:15;;;;;;;9.00;7.80;;;;;;;20.60;70.98;101300.97;4981543;28;20200;-76
2023/07/11 05:26:41;;;;;;;10.00;7.53;;;;;;;20.67;71.04;101301.00;4984133;28;20959;-75
2023/07/11 05:29:08;;;;;;;8.33;7.53;;;;;;;20.74;70.91;101293.75;4971909;28;22814;-76
2023/07/11 05:31:34;;;;;;;9.20;7.37;;;;;;;20.83;70.70;101288.03;4986087;28;20203;-76
2023/07/11 05:34:01;;;;;;;10.13;7.13;;;;;;;20.89;70.62;101283.88;4983724;28;20212;-76
2023/07/11 05:36:31;;;;;;;8.80;7.00;;;;;;;20.98;70.15;101281.63;4984114;28;22227;-75
2023/07/11 05:39:00;;;;;;;9.27;7.33;;;;;;;21.07;70.22;101288.19;4978961;28;20933;-76
2023/07/11 05:41:27;;;;;;;8.00;7.30;;;;;;;21.14;69.75;101287.44;4984653;28;20230;-76
2023/07/11 05:43:54;;;;;;;9.37;7.40;;;;;;;21.24;69.71;101292.06;4984783;28;20218;-76
2023/07/11 05:46:21;;;;;;;8.53;7.47;;;;;;;21.30;69.17;101280.56;4983922;28;20227;-76
2023/07/11 05:48:47;;;;;;;7.70;7.00;;;;;;;21.41;69.32;101281.38;4982407;28;20870;-75
2023/07/11 05:51:16;;;;;;;10.23;7.47;;;;;;;21.52;68.90;101289.47;4982070;28;20208;-76
2023/07/11 05:53:43;;;;;;;7.80;7.07;;;;;;;21.60;68.22;101275.63;4983632;28;20299;-76
2023/07/11 05:56:10;;;;;;;12.73;10.40;;;;;;;21.70;68.47;101282.97;4980844;28;20231;-76
2023/07/11 05:58:37;;;;;;;10.23;7.77;;;;;;;21.79;68.10;101283.34;4984970;28;20207;-76
2023/07/11 06:01:04;;;;;;;8.77;7.63;;;;;;;21.85;68.67;101284.53;4982246;28;20628;-76
2023/07/11 06:03:32;;;;;;;9.23;7.50;;;;;;;21.94;68.39;101289.50;4980161;28;20942;-76
2023/07/11 06:06:01;;;;;;;7.37;6.20;;;;;;;22.01;67.12;101287.59;4982027;28;20247;-76
2023/07/11 06:08:28;;;;;;;8.67;6.27;;;;;;;22.09;67.14;101274.91;4980872;28;20219;-76
2023/07/11 06:10:57;;;;;;;8.30;6.37;;;;;;;22.16;67.64;101272.97;4983811;28;20219;-76
2023/07/11 06:13:25;;;;;;;7.70;6.00;;;;;;;22.24;66.85;101276.44;4986728;28;20204;-76
2023/07/11 06:15:58;;;;;;;8.27;6.73;;;;;;;22.34;66.08;101278.31;4983191;28;21294;-76
2023/07/11 06:18:24;;;;;;;10.53;6.77;;;;;;;22.45;66.07;101284.50;4986554;28;20403;-76
2023/07/11 06:20:51;;;;;;;7.40;6.43;;;;;;;22.53;65.96;101275.22;4983858;28;20235;-75
2023/07/11 06:23:19;;;;;;;8.80;5.97;;;;;;;22.64;65.28;101275.97;4983581;28;20212;-76
2023/07/11 06:25:45;;;;;;;5.57;4.90;;;;;;;22.72;63.67;101270.16;4985334;28;21267;-76
2023/07/11 06:28:11;;;;;;;5.57;4.50;;;;;;;22.77;63.60;101264.38;4985677;28;20829;-76
2023/07/11 06:30:41;;;;;;;6.13;4.93;;;;;;;22.84;63.53;101260.88;4985334;28;20212;-76
2023/07/11 06:33:09;;;;;;;7.30;4.33;;;;;;;22.92;62.74;101263.16;4984972;28;20212;-76
2023/07/11 06:35:36;;;;;;;10.83;5.53;;;;;;;23.01;61.87;101260.03;4985358;28;20267;-76
2023/07/11 06:38:03;;;;;;;10.33;5.73;;;;;;;23.10;62.80;101265.75;4983286;28;20222;-76
2023/07/11 06:40:29;;;;;;;6.53;4.47;;;;;;;23.23;61.03;101266.88;4987065;28;20238;-76
2023/07/11 06:42:56;;;;;;;3.80;3.50;;;;;;;23.27;61.15;101264.16;4983243;28;20212;-76
2023/07/11 06:45:22;;;;;;;4.40;4.00;;;;;;;23.31;62.43;101271.06;4984705;28;20480;-76
2023/07/11 06:47:50;;;;;;;4.33;3.80;;;;;;;23.37;60.00;101266.03;4982692;28;20413;-75
2023/07/11 06:50:17;;;;;;;4.53;3.77;;;;;;;23.41;59.72;101262.16;4980790;28;20204;-76
2023/07/11 06:52:44;;;;;;;5.47;3.47;;;;;;;23.48;60.45;101262.88;4980749;28;20211;-76
2023/07/11 06:55:12;;;;;;;5.07;3.43;;;;;;;23.58;61.20;101269.34;4979738;28;21270;-76
2023/07/11 06:57:39;;;;;;;6.47;4.17;;;;;;;23.64;59.49;101268.53;4982487;28;20413;-76
2023/07/11 07:00:07;;;;;;;5.65;3.80;;;;;;;23.72;59.33;101268.50;4983266;28;20216;-76
2023/07/11 07:02:33;;;;;;;4.53;3.53;;;;;;;23.78;58.47;101273.81;4985935;28;20212;-75
2023/07/11 07:05:01;;;;;;;5.30;3.38;;;;;;;23.85;58.81;101271.06;4984175;28;20211;-76
2023/07/11 07:07:27;;;;;;;4.30;3.90;;;;;;;23.91;56.53;101268.72;4982516;28;20238;-76
2023/07/11 07:09:53;;;;;;;4.50;3.08;;;;;;;23.97;56.50;101264.44;4984131;28;20220;-76
2023/07/11 07:12:20;;;;;;;4.80;3.38;;;;;;;24.03;59.53;101264.78;4984804;28;20215;-76
2023/07/11 07:14:46;;;;;;;5.70;3.20;;;;;;;24.13;57.74;101267.38;4983458;28;20234;-76
2023/07/11 07:17:12;;;;;;;5.03;3.58;;;;;;;;;;4980703;28;20235;-76
2023/07/11 07:19:39;;;;;;;5.30;3.55;;;;;;;24.29;57.24;101266.84;4987764;28;21166;-76
2023/07/11 07:22:06;;;;;;;5.13;4.10;;;;;;;24.37;56.68;101263.66;4983417;28;20797;-75
2023/07/11 07:24:33;;;;;;;4.38;3.65;;;;;;;24.39;58.57;101255.91;4986067;28;20349;-76
2023/07/11 07:26:59;;;;;;;7.20;3.70;;;;;;;24.47;56.93;101257.38;4985265;28;20230;-76
2023/07/11 07:29:26;;;;;;;4.10;3.70;;;;;;;24.52;55.89;101253.47;4987530;28;20207;-76
2023/07/11 07:31:52;;;;;;;4.50;4.10;;;;;;;24.58;54.93;101251.84;4988549;28;20223;-76
2023/07/11 07:34:19;;;;;;;4.20;3.67;;;;;;;24.62;54.79;101247.22;4986413;28;20238;-76
2023/07/11 07:36:45;;;;;;;4.18;3.60;;;;;;;24.66;53.78;101248.69;4986326;28;20239;-76
2023/07/11 07:39:13;;;;;;;4.50;3.58;;;;;;;24.74;54.33;101243.97;4984015;28;20214;-76
2023/07/11 07:41:40;;;;;;;5.13;3.58;;;;;;;24.80;53.69;101243.13;4986687;28;20417;-77
2023/07/11 07:44:06;;;;;;;3.17;2.88;;;;;;;24.84;52.19;101238.44;4984937;28;20269;-76
2023/07/11 07:46:33;;;;;;;4.85;4.25;;;;;;;24.94;52.12;101239.47;4986772;28;20344;-76
2023/07/11 07:48:59;;;;;;;5.95;3.92;;;;;;;24.97;55.70;101249.47;4982217;28;20204;-76
2023/07/11 07:51:25;;;;;;;5.47;4.00;;;;;;;25.06;54.96;101238.91;4981469;28;20204;-76
2023/07/11 07:53:52;;;;;;;6.20;4.13;;;;;;;25.15;55.35;101233.75;4983985;28;20851;-76
2023/07/11 07:56:21;;;;;;;5.40;3.85;;;;;;;25.28;54.49;101235.53;4984913;28;20302;-76
2023/07/11 07:58:48;;;;;;;5.07;3.50;;;;;;;25.39;53.21;101235.38;4987788;28;20288;-76
2023/07/11 08:01:16;;;;;;;6.38;3.50;;;;;;;25.47;52.22;101237.56;4982349;28;20220;-76
2023/07/11 08:03:44;;;;;;;4.40;3.45;;;;;;;25.55;52.26;101225.47;4984675;28;20208;-76
2023/07/11 08:06:11;;;;;;;3.80;3.05;;;;;;;25.64;52.65;101220.28;4982433;28;20223;-76
2023/07/11 08:08:39;;;;;;;4.80;3.47;;;;;;;25.70;49.90;101215.16;4987326;28;20522;-76
2023/07/11 08:11:07;;;;;;;3.50;2.88;;;;;;;25.76;47.57;101211.59;4983143;28;20676;-76
2023/07/11 08:13:35;;;;;;;3.58;2.75;;;;;;;25.83;50.89;101210.69;4984099;28;20199;-76
2023/07/11 08:16:02;;;;;;;4.10;2.70;;;;;;;25.87;45.52;101206.75;4979239;28;20239;-77
2023/07/11 08:18:29;;;;;;;4.72;2.95;;;;;;;25.94;49.83;101211.28;4984756;28;20271;-76
2023/07/11 08:20:55;;;;;;;3.67;3.10;;;;;;;26.02;46.47;101210.75;4982725;28;20235;-76
2023/07/11 08:23:22;;;;;;;4.28;2.72;;;;;;;26.10;45.75;101211.41;4979937;28;20223;-76
2023/07/11 08:25:51;;;;;;;4.22;2.90;;;;;;;26.18;49.61;101215.50;4986933;28;20235;-76
2023/07/11 08:28:18;;;;;;;3.75;3.03;;;;;;;26.25;46.98;101213.41;4981961;28;20210;-76
2023/07/11 08:30:45;;;;;;;3.30;2.63;;;;;;;26.32;47.40;101207.84;4981146;28;21237;-76
2023/07/11 08:33:12;;;;;;;4.70;2.60;;;;;;;26.43;47.01;101203.00;4978190;28;20293;-76
2023/07/11 08:35:39;;;;;;;5.30;3.15;;;;;;;26.52;48.15;101199.72;4980735;28;20370;-76
2023/07/11 08:38:11;;;;;;;5.03;2.97;;;;;;;26.61;47.68;101203.44;4983319;28;20208;-77
2023/07/11 08:40:46;;;;;;;4.00;2.70;;;;;;;26.74;46.58;101207.03;4985285;28;20214;-76
2023/07/11 08:43:16;;;;;;;3.33;2.30;;;;;;;26.85;49.12;101206.78;4980822;28;20207;-76
2023/07/11 08:45:51;;;;;;;3.13;2.83;;;;;;;26.93;47.53;101205.47;4982790;28;20242;-76
2023/07/11 08:48:21;;;;;;;3.80;2.63;;;;;;;26.98;45.78;101208.41;4979513;28;20214;-76
2023/07/11 08:51:09;;;;;;;3.47;2.40;;;;;;;27.07;43.33;101199.69;4984482;28;20295;-76
2023/07/11 08:53:41;;;;;;;2.10;1.90;;;;;;;27.17;41.47;101202.22;4980715;28;21229;-76
2023/07/11 08:56:16;;;;;;;2.83;2.00;;;;;;;27.25;39.93;101200.84;4983334;28;20255;-76
2023/07/11 08:58:44;;;;;;;3.13;1.65;;;;;;;27.24;39.47;101191.19;4983711;28;20350;-76
2023/07/11 09:01:33;;;;;;;3.40;2.47;;;;;;;27.32;39.75;101191.78;4980857;28;20220;-76
2023/07/11 09:04:01;;;;;;;3.40;2.10;;;;;;;27.36;40.69;101187.03;4980657;28;20323;-76
2023/07/11 09:06:36;;;;;;;2.75;2.00;;;;;;;27.44;45.10;101189.16;4982366;28;20235;-76
2023/07/11 09:09:04;;;;;;;3.88;2.33;;;;;;;27.51;40.37;101183.53;4981325;28;20214;-76
2023/07/11 09:11:50;;;;;;;4.15;2.60;;;;;;;27.55;40.36;101181.50;4979199;28;20219;-76
2023/07/11 09:14:33;;;;;;;3.10;2.30;;;;;;;27.62;39.61;101178.63;4980696;28;20589;-76
2023/07/11 09:17:07;;;;;;;3.05;2.40;;;;;;;27.65;39.67;101177.78;4982608;28;20253;-76
2023/07/11 09:19:49;;;;;;;3.45;2.40;;;;;;;27.73;40.49;101170.97;4982773;28;21161;-76
2023/07/11 09:22:25;;;;;;;5.60;3.13;;;;;;;27.78;41.18;101166.97;4979236;28;20869;-76
2023/07/11 09:24:57;;;;;;;4.88;2.60;;;;;;;27.84;42.47;101165.28;4982509;28;20969;-76
2023/07/11 09:27:27;;;;;;;3.20;2.47;;;;;;;27.93;40.68;101170.88;4978741;28;21743;-76
2023/07/11 09:29:55;;;;;;;4.72;2.72;;;;;;;27.97;42.87;101161.44;4980557;28;20801;-76
2023/07/11 09:32:32;;;;;;;3.33;2.50;;;;;;;28.03;41.60;101164.38;4980704;28;20219;-76
2023/07/11 09:35:01;;;;;;;3.80;2.63;;;;;;;28.04;38.59;101166.69;4983370;28;20460;-76
2023/07/11 09:37:33;;;;;;;3.88;2.60;;;;;;;28.10;38.82;101156.03;4980085;28;20239;-76
2023/07/11 09:40:09;;;;;;;3.22;2.40;;;;;;;28.15;39.27;101155.50;4979117;28;20247;-76
2023/07/11 09:42:49;;;;;;;3.45;2.75;;;;;;;28.21;40.87;101153.78;4982664;28;20279;-76
2023/07/11 09:45:17;;;;;;;3.85;2.80;;;;;;;28.25;37.83;101155.22;4985855;28;21297;-76
2023/07/11 09:47:51;;;;;;;3.95;3.00;;;;;;;28.30;38.21;101146.53;4984156;28;20955;-76
2023/07/11 09:50:32;;;;;;;4.10;2.67;;;;;;;28.40;38.94;101142.78;4985070;28;20939;-76
2023/07/11 09:53:02;;;;;;;2.83;2.58;;;;;;;28.51;38.11;101139.75;4985978;28;20305;-76
2023/07/11 09:55:34;;;;;;;3.03;2.15;;;;;;;28.56;40.46;101142.69;4983453;28;21389;-76
2023/07/11 09:58:01;;;;;;;5.00;2.40;;;;;;;28.56;37.45;101136.47;4986252;28;20199;-76
2023/07/11 10:00:28;;;;;;;2.70;2.40;;;;;;;28.62;38.30;101138.22;4981465;28;20212;-76
2023/07/11 10:02:59;;;;;;;5.70;2.38;;;;;;;28.72;38.29;101125.50;4981215;28;20228;-76
2023/07/11 10:05:25;;;;;;;3.83;2.28;;;;;;;28.78;38.15;101124.53;4983067;28;20214;-75
2023/07/11 10:07:59;;;;;;;6.80;2.42;;;;;;;28.81;37.46;101128.34;4983884;28;20208;-76
2023/07/11 10:10:26;;;;;;;2.78;2.38;;;;;;;28.71;37.31;101119.31;4982017;28;21506;-76
2023/07/11 10:12:52;;;;;;;5.38;2.70;;;;;;;28.68;38.20;101112.03;4983516;28;20208;-76
2023/07/11 10:15:19;;;;;;;2.38;2.17;;;;;;;28.79;39.08;101109.72;4982282;28;20834;-76
2023/07/11 10:17:46;;;;;;;3.22;2.25;;;;;;;28.90;38.45;101109.41;4984851;28;20934;-76
2023/07/11 10:20:18;;;;;;;3.80;2.58;;;;;;;28.94;40.04;101110.81;4979042;28;20216;-76
2023/07/11 10:22:47;;;;;;;3.55;2.00;;;;;;;29.01;35.75;101104.41;4967419;28;20223;-76
2023/07/11 10:25:18;;;;;;;3.40;2.35;;;;;;;29.02;36.45;101106.69;4977411;28;20219;-76
2023/07/11 10:27:50;;;;;;;3.67;2.08;;;;;;;28.98;36.43;101102.56;4968708;28;20212;-76
2023/07/11 10:30:19;;;;;;;3.67;2.10;;;;;;;29.02;34.17;101100.50;4969777;28;20216;-76
2023/07/11 10:32:56;;;;;;;3.28;1.80;;;;;;;29.05;35.22;101092.22;4976726;28;20215;-76
2023/07/11 10:35:25;;;;;;;2.55;2.10;;;;;;;29.07;34.12;101084.41;4972216;28;20247;-76
2023/07/11 10:37:56;;;;;;;3.08;2.08;;;;;;;29.08;38.41;101087.84;4981475;28;20212;-78
2023/07/11 10:40:27;;;;;;;5.30;2.33;;;;;;;29.02;36.03;101076.78;4982152;28;20576;-76
2023/07/11 10:43:02;;;;;;;2.13;1.92;;;;;;;29.05;34.38;101067.72;4986004;28;20225;-76
2023/07/11 10:45:32;;;;;;;4.88;2.20;;;;;;;29.12;35.91;101067.53;4982075;28;21758;-76
2023/07/11 10:48:05;;;;;;;2.90;2.35;;;;;;;29.17;37.79;101071.63;4985523;28;20215;-76
2023/07/11 10:50:39;;;;;;;4.82;2.03;;;;;;;29.17;32.80;101061.53;4978821;28;20339;-75
2023/07/11 10:53:17;;;;;;;3.38;2.20;;;;;;;29.22;35.82;101054.75;4969433;28;20203;-75
2023/07/11 10:55:50;;;;;;;5.05;2.20;;;;;;;29.20;33.91;101062.59;4980817;28;20242;-75
2023/07/11 10:58:22;;;;;;;2.97;2.15;;;;;;;29.26;35.05;101050.69;4979873;28;20203;-75
2023/07/11 11:00:56;;;;;;;4.22;2.13;;;;;;;29.30;35.75;101042.41;4984683;28;20235;-75
2023/07/11 11:03:37;;;;;;;2.58;1.90;;;;;;;29.32;36.31;101046.22;4981924;28;20601;-75
2023/07/11 11:06:20;;;;;;;4.13;2.13;;;;;;;29.31;31.52;101041.22;4982196;28;20977;-75
2023/07/11 11:08:56;;;;;;;2.20;2.00;;;;;;;29.34;35.61;101038.38;4979972;28;20199;-74
2023/07/11 11:11:39;;;;;;;3.28;1.80;;;;;;;29.38;35.17;101033.59;4979178;28;20902;-75
2023/07/11 11:14:12;;;;;;;2.50;2.13;;;;;;;29.45;34.02;101029.81;4979301;28;20203;-74
2023/07/11 11:16:55;;;;;;;2.42;1.80;;;;;;;29.47;33.32;101017.28;4981759;28;20230;-75
2023/07/11 11:19:35;;;;;;;2.85;1.98;;;;;;;29.50;34.49;101016.41;4981944;28;20222;-75
2023/07/11 11:22:07;;;;;;;2.33;1.90;;;;;;;29.57;31.97;101013.47;4982908;28;20229;-75
2023/07/11 11:24:50;;;;;;;5.45;1.98;;;;;;;29.60;33.11;101009.09;4977915;28;20220;-75
2023/07/11 11:27:45;;;;;;;3.15;1.92;;;;;;;29.66;33.42;101012.75;4980995;28;20293;-76
2023/07/11 11:30:26;;;;;;;3.97;2.25;;;;;;;29.68;33.30;101008.38;4982175;28;20328;-75
2023/07/11 11:33:05;;;;;;;2.65;2.03;;;;;;;29.71;32.93;101007.50;4979956;28;20220;-75